createdAt,value
2022-08-19T00:00:27.840Z,1007.92
2022-08-19T00:01:30.425Z,1007.92
2022-08-19T00:02:27.803Z,1007.90
2022-08-19T00:03:27.785Z,1007.89
2022-08-19T00:35:27.187Z,1008.11
2022-08-19T00:36:27.177Z,1008.09
2022-08-19T00:37:27.152Z,1008.10
2022-08-19T00:38:35.125Z,1008.08
2022-08-19T00:39:27.111Z,1008.08
2022-08-19T00:40:27.095Z,1008.05
2022-08-19T00:41:27.077Z,1008.07
2022-08-19T00:42:27.057Z,1008.07
2022-08-19T00:43:27.046Z,1008.07
2022-08-19T00:44:27.441Z,1008.06
2022-08-19T00:45:27.003Z,1008.03
2022-08-19T01:10:26.534Z,1007.89
2022-08-19T01:11:26.513Z,1007.84
2022-08-19T01:12:26.498Z,1007.86
2022-08-19T01:13:26.477Z,1007.82
2022-08-19T01:14:26.466Z,1007.85
2022-08-19T01:15:26.437Z,1007.81
2022-08-19T01:16:26.420Z,1007.82
2022-08-19T01:17:26.403Z,1007.85
2022-08-19T01:18:26.390Z,1007.78
2022-08-19T01:19:26.364Z,1007.80
2022-08-19T01:20:26.344Z,1007.79
2022-08-19T01:21:26.325Z,1007.76
2022-08-19T01:22:31.408Z,1007.78
2022-08-19T01:23:26.292Z,1007.78
2022-08-19T01:24:26.270Z,1007.79
2022-08-19T01:25:26.527Z,1007.81
2022-08-19T01:43:25.921Z,1007.89
2022-08-19T01:44:25.898Z,1007.92
2022-08-19T01:45:25.875Z,1007.84
2022-08-19T01:46:25.851Z,1007.86
2022-08-19T01:47:25.831Z,1007.82
2022-08-19T01:48:25.813Z,1007.89
2022-08-19T01:49:25.797Z,1007.85
2022-08-19T01:50:25.777Z,1007.83
2022-08-19T01:51:25.754Z,1007.84
2022-08-19T01:52:25.735Z,1007.83
2022-08-19T01:53:26.699Z,1007.89
2022-08-19T01:54:27.658Z,1007.91
2022-08-19T01:55:25.678Z,1007.89
2022-08-19T01:56:25.660Z,1007.88
2022-08-19T02:20:25.202Z,1007.75
2022-08-19T02:21:25.183Z,1007.69
2022-08-19T02:22:25.166Z,1007.67
2022-08-19T02:23:25.144Z,1007.64
2022-08-19T02:24:25.126Z,1007.66
2022-08-19T02:25:25.106Z,1007.66
2022-08-19T02:26:25.088Z,1007.67
2022-08-19T02:27:25.068Z,1007.67
2022-08-19T02:28:25.050Z,1007.65
2022-08-19T02:29:25.034Z,1007.61
2022-08-19T02:30:25.016Z,1007.62
2022-08-19T02:31:25.661Z,1007.59
2022-08-19T02:32:24.973Z,1007.60
2022-08-19T02:33:24.956Z,1007.62
2022-08-19T02:34:24.933Z,1007.58
2022-08-19T02:35:24.921Z,1007.59
2022-08-19T02:36:24.895Z,1007.61
2022-08-19T02:37:24.876Z,1007.62
2022-08-19T02:38:24.857Z,1007.67
2022-08-19T02:39:24.837Z,1007.70
2022-08-19T02:55:24.531Z,1007.73
2022-08-19T02:56:24.514Z,1007.67
2022-08-19T02:57:24.498Z,1007.64
2022-08-19T02:58:25.156Z,1007.64
2022-08-19T02:59:24.453Z,1007.62
2022-08-19T03:00:24.435Z,1007.61
2022-08-19T03:01:24.458Z,1007.58
2022-08-19T03:02:24.400Z,1007.62
2022-08-19T03:03:24.396Z,1007.56
2022-08-19T03:04:24.357Z,1007.60
2022-08-19T03:05:47.902Z,1007.57
2022-08-19T03:06:24.318Z,1007.60
2022-08-19T03:07:24.300Z,1007.61
2022-08-19T03:08:24.282Z,1007.58
2022-08-19T03:09:24.262Z,1007.62
2022-08-19T03:10:24.245Z,1007.61
2022-08-19T03:11:24.224Z,1007.57
2022-08-19T03:12:24.207Z,1007.59
2022-08-19T03:13:24.184Z,1007.60
2022-08-19T03:14:24.179Z,1007.56
2022-08-19T03:15:24.145Z,1007.60
2022-08-19T03:30:23.869Z,1007.75
2022-08-19T03:31:44.530Z,1007.74
2022-08-19T03:32:32.942Z,1007.72
2022-08-19T03:33:28.515Z,1007.72
2022-08-19T03:34:23.777Z,1007.72
2022-08-19T03:35:23.758Z,1007.72
2022-08-19T03:36:23.741Z,1007.72
2022-08-19T03:37:23.725Z,1007.74
2022-08-19T03:38:23.705Z,1007.76
2022-08-19T03:39:23.682Z,1007.74
2022-08-19T03:40:23.663Z,1007.75
2022-08-19T03:41:23.644Z,1007.76
2022-08-19T03:42:32.992Z,1007.74
2022-08-19T03:43:23.605Z,1007.70
2022-08-19T03:44:23.592Z,1007.70
2022-08-19T03:45:23.568Z,1007.69
2022-08-19T03:46:23.548Z,1007.66
2022-08-19T03:47:23.527Z,1007.66
2022-08-19T03:48:23.510Z,1007.63
2022-08-19T03:49:27.197Z,1007.66
2022-08-19T03:50:23.472Z,1007.68
2022-08-19T03:51:30.948Z,1007.70
2022-08-19T03:52:23.432Z,1007.73
2022-08-19T04:05:23.239Z,1007.81
2022-08-19T04:06:23.160Z,1007.78
2022-08-19T04:07:23.145Z,1007.83
2022-08-19T04:08:23.124Z,1007.81
2022-08-19T04:09:23.102Z,1007.80
2022-08-19T04:10:23.086Z,1007.79
2022-08-19T04:11:23.065Z,1007.78
2022-08-19T04:12:23.048Z,1007.81
2022-08-19T04:13:23.030Z,1007.77
2022-08-19T04:14:23.007Z,1007.78
2022-08-19T04:15:22.985Z,1007.78
2022-08-19T04:16:22.969Z,1007.79
2022-08-19T04:17:22.947Z,1007.80
2022-08-19T04:18:22.935Z,1007.78
2022-08-19T04:19:22.910Z,1007.85
2022-08-19T04:20:22.898Z,1007.80
2022-08-19T04:21:22.871Z,1007.79
2022-08-19T04:22:22.852Z,1007.81
2022-08-19T04:23:22.831Z,1007.83
2022-08-19T04:24:22.813Z,1007.80
2022-08-19T04:25:22.792Z,1007.80
2022-08-19T04:26:22.774Z,1007.79
2022-08-19T04:27:22.755Z,1007.80
2022-08-19T04:28:22.741Z,1007.79
2022-08-19T04:29:22.719Z,1007.76
2022-08-19T04:30:22.694Z,1007.81
2022-08-19T04:31:22.674Z,1007.79
2022-08-19T04:32:22.657Z,1007.77
2022-08-19T04:33:24.035Z,1007.78
2022-08-19T04:34:22.618Z,1007.83
2022-08-19T04:35:24.954Z,1007.85
2022-08-19T04:44:22.423Z,1007.85
2022-08-19T04:45:22.820Z,1007.80
2022-08-19T04:46:38.141Z,1007.85
2022-08-19T04:47:48.016Z,1007.83
2022-08-19T04:48:27.044Z,1007.84
2022-08-19T04:49:22.327Z,1007.83
2022-08-19T04:50:22.308Z,1007.83
2022-08-19T04:51:22.292Z,1007.84
2022-08-19T04:52:22.267Z,1007.88
2022-08-19T04:53:22.248Z,1007.90
2022-08-19T04:54:37.994Z,1007.89
2022-08-19T04:55:22.210Z,1007.88
2022-08-19T04:56:22.190Z,1007.91
2022-08-19T04:57:22.172Z,1007.90
2022-08-19T04:58:22.150Z,1007.89
2022-08-19T04:59:22.139Z,1007.91
2022-08-19T05:00:22.112Z,1007.92
2022-08-19T05:01:22.155Z,1007.90
2022-08-19T05:02:22.071Z,1007.94
2022-08-19T05:03:22.056Z,1007.92
2022-08-19T05:04:22.033Z,1007.92
2022-08-19T05:05:22.014Z,1007.93
2022-08-19T05:06:22.004Z,1007.89
2022-08-19T05:07:21.977Z,1007.94
2022-08-19T05:08:31.270Z,1007.92
2022-08-19T05:09:21.938Z,1007.92
2022-08-19T05:17:27.461Z,1008.12
2022-08-19T05:18:21.761Z,1008.15
2022-08-19T05:19:21.750Z,1008.15
2022-08-19T05:20:21.725Z,1008.19
2022-08-19T05:21:21.709Z,1008.18
2022-08-19T05:22:21.696Z,1008.20
2022-08-19T05:23:22.925Z,1008.22
2022-08-19T05:24:21.646Z,1008.22
2022-08-19T05:25:21.633Z,1008.22
2022-08-19T05:26:21.607Z,1008.19
2022-08-19T05:27:21.588Z,1008.22
2022-08-19T05:28:21.569Z,1008.19
2022-08-19T05:29:21.551Z,1008.24
2022-08-19T05:30:33.501Z,1008.23
2022-08-19T05:31:21.512Z,1008.21
2022-08-19T05:32:21.493Z,1008.23
2022-08-19T05:33:21.474Z,1008.21
2022-08-19T05:34:21.454Z,1008.22
2022-08-19T05:35:21.432Z,1008.23
2022-08-19T05:36:21.413Z,1008.25
2022-08-19T05:37:21.402Z,1008.20
2022-08-19T05:38:21.374Z,1008.20
2022-08-19T05:39:21.366Z,1008.21
2022-08-19T05:40:21.402Z,1008.18
2022-08-19T05:41:21.319Z,1008.17
2022-08-19T05:42:21.303Z,1008.17
2022-08-19T05:43:21.277Z,1008.14
2022-08-19T05:44:21.259Z,1008.12
2022-08-19T05:45:21.241Z,1008.17
2022-08-19T05:46:28.152Z,1008.19
2022-08-19T05:47:21.235Z,1008.15
2022-08-19T05:48:21.186Z,1008.13
2022-08-19T05:53:21.088Z,1008.13
2022-08-19T05:54:21.065Z,1008.13
2022-08-19T05:55:21.050Z,1008.14
2022-08-19T05:56:21.027Z,1008.10
2022-08-19T05:57:21.008Z,1008.06
2022-08-19T05:58:23.225Z,1008.06
2022-08-19T05:59:20.974Z,1008.04
2022-08-19T06:00:24.585Z,1008.05
2022-08-19T06:01:20.933Z,1008.05
2022-08-19T06:02:20.984Z,1008.02
2022-08-19T06:03:20.895Z,1008.02
2022-08-19T06:04:20.875Z,1007.98
2022-08-19T06:05:20.870Z,1007.99
2022-08-19T06:06:20.838Z,1008.02
2022-08-19T06:07:20.818Z,1008.01
2022-08-19T06:08:21.008Z,1008.02
2022-08-19T06:09:20.779Z,1007.99
2022-08-19T06:10:20.763Z,1007.97
2022-08-19T06:11:20.742Z,1007.99
2022-08-19T06:12:20.720Z,1008.01
2022-08-19T06:13:20.707Z,1007.99
2022-08-19T06:14:20.685Z,1008.01
2022-08-19T06:15:20.669Z,1008.02
2022-08-19T06:16:20.642Z,1008.04
2022-08-19T06:17:20.627Z,1008.07
2022-08-19T06:18:20.608Z,1008.07
2022-08-19T06:19:20.588Z,1008.08
2022-08-19T06:20:39.771Z,1008.10
2022-08-19T06:21:20.554Z,1008.10
2022-08-19T06:22:20.531Z,1008.14
2022-08-19T06:23:20.516Z,1008.14
2022-08-19T06:24:20.496Z,1008.12
2022-08-19T06:25:20.476Z,1008.12
2022-08-19T06:26:20.454Z,1008.12
2022-08-19T06:27:20.437Z,1008.10
2022-08-19T06:28:20.846Z,1008.10
2022-08-19T06:29:23.520Z,1008.12
2022-08-19T06:30:20.378Z,1008.11
2022-08-19T06:31:20.362Z,1008.10
2022-08-19T06:32:20.342Z,1008.10
2022-08-19T06:33:20.323Z,1008.11
2022-08-19T06:34:20.306Z,1008.09
2022-08-19T06:35:20.289Z,1008.07
2022-08-19T06:36:20.274Z,1008.11
2022-08-19T06:37:20.248Z,1008.09
2022-08-19T06:38:20.226Z,1008.09
2022-08-19T06:39:20.210Z,1008.07
2022-08-19T06:40:20.222Z,1008.08
2022-08-19T06:41:20.172Z,1008.12
2022-08-19T06:42:21.640Z,1008.09
2022-08-19T06:43:20.136Z,1008.10
2022-08-19T06:44:20.114Z,1008.07
2022-08-19T06:45:20.101Z,1008.09
2022-08-19T06:46:20.077Z,1008.10
2022-08-19T06:47:24.977Z,1008.10
2022-08-19T06:48:20.040Z,1008.13
2022-08-19T06:49:20.022Z,1008.15
2022-08-19T06:50:20.006Z,1008.14
2022-08-19T06:51:20.067Z,1008.12
2022-08-19T06:56:19.893Z,1008.03
2022-08-19T07:26:19.336Z,1008.14
2022-08-19T07:27:19.311Z,1008.13
2022-08-19T07:28:24.038Z,1008.12
2022-08-19T07:56:18.772Z,1008.42
2022-08-19T07:57:18.755Z,1008.39
2022-08-19T07:58:18.733Z,1008.39
2022-08-19T07:59:18.716Z,1008.38
2022-08-19T08:00:23.148Z,1008.41
2022-08-19T08:01:18.695Z,1008.43
2022-08-19T08:25:18.249Z,1008.72
2022-08-19T08:26:19.395Z,1008.76
2022-08-19T08:27:18.209Z,1008.80
2022-08-19T08:28:18.279Z,1008.80
2022-08-19T08:29:18.174Z,1008.83
2022-08-19T08:30:18.203Z,1008.86
2022-08-19T08:31:18.138Z,1008.87
2022-08-19T08:52:17.780Z,1008.76
2022-08-19T08:53:17.761Z,1008.74
2022-08-19T08:54:17.739Z,1008.74
2022-08-19T08:55:17.726Z,1008.74
2022-08-19T08:56:17.777Z,1008.79
2022-08-19T08:57:17.691Z,1008.78
2022-08-19T08:58:17.674Z,1008.79
2022-08-19T08:59:17.657Z,1008.78
2022-08-19T09:00:17.647Z,1008.81
2022-08-19T09:19:17.320Z,1008.57
2022-08-19T09:20:17.362Z,1008.60
2022-08-19T09:21:17.353Z,1008.57
2022-08-19T09:22:19.983Z,1008.60
2022-08-19T09:23:17.258Z,1008.61
2022-08-19T09:24:17.238Z,1008.59
2022-08-19T09:25:17.222Z,1008.56
2022-08-19T09:26:17.206Z,1008.60
2022-08-19T09:45:16.882Z,1008.70
2022-08-19T09:46:18.288Z,1008.69
2022-08-19T09:47:16.847Z,1008.64
2022-08-19T09:48:19.045Z,1008.63
2022-08-19T09:49:16.812Z,1008.59
2022-08-19T09:50:16.834Z,1008.60
2022-08-19T09:51:16.779Z,1008.59
2022-08-19T09:52:16.767Z,1008.60
2022-08-19T09:53:16.747Z,1008.67
2022-08-19T09:54:16.733Z,1008.65
2022-08-19T09:55:16.713Z,1008.58
2022-08-19T09:56:16.702Z,1008.57
2022-08-19T10:12:17.870Z,1008.39
2022-08-19T10:13:16.416Z,1008.48
2022-08-19T10:14:16.403Z,1008.40
2022-08-19T10:15:16.390Z,1008.44
2022-08-19T10:16:16.372Z,1008.53
2022-08-19T10:17:19.866Z,1008.56
2022-08-19T10:18:16.337Z,1008.57
2022-08-19T10:19:16.318Z,1008.55
2022-08-19T10:20:16.305Z,1008.53
2022-08-19T10:21:16.289Z,1008.52
2022-08-19T10:22:16.280Z,1008.47
2022-08-19T10:23:16.252Z,1008.40
2022-08-19T10:38:16.013Z,1008.47
2022-08-19T10:39:15.995Z,1008.47
2022-08-19T10:40:16.173Z,1008.48
2022-08-19T10:41:15.963Z,1008.44
2022-08-19T10:42:15.950Z,1008.44
2022-08-19T10:43:15.934Z,1008.48
2022-08-19T10:44:15.915Z,1008.46
2022-08-19T10:45:15.897Z,1008.44
2022-08-19T10:46:16.664Z,1008.46
2022-08-19T10:47:24.295Z,1008.46
2022-08-19T10:48:15.847Z,1008.42
2022-08-19T10:49:15.834Z,1008.39
2022-08-19T10:50:15.972Z,1008.35
2022-08-19T10:51:22.557Z,1008.31
2022-08-19T10:52:20.178Z,1008.33
2022-08-19T11:09:15.527Z,1008.41
2022-08-19T11:10:20.874Z,1008.42
2022-08-19T11:11:15.490Z,1008.43
2022-08-19T11:12:15.474Z,1008.41
2022-08-19T11:13:15.457Z,1008.29
2022-08-19T11:14:15.441Z,1008.33
2022-08-19T11:15:15.426Z,1008.30
2022-08-19T11:16:15.411Z,1008.34
2022-08-19T11:17:15.399Z,1008.36
2022-08-19T11:18:15.384Z,1008.35
2022-08-19T11:19:15.366Z,1008.37
2022-08-19T11:20:15.347Z,1008.32
2022-08-19T11:21:15.333Z,1008.30
2022-08-19T11:22:16.214Z,1008.29
2022-08-19T11:23:15.299Z,1008.25
2022-08-19T11:24:15.298Z,1008.25
2022-08-19T11:25:15.271Z,1008.27
2022-08-19T11:26:15.257Z,1008.23
2022-08-19T11:27:15.239Z,1008.24
2022-08-19T11:28:15.221Z,1008.17
2022-08-19T11:29:15.205Z,1008.17
2022-08-19T11:51:14.861Z,1008.19
2022-08-19T11:52:14.846Z,1008.12
2022-08-19T11:53:14.830Z,1008.12
2022-08-19T11:54:14.826Z,1008.22
2022-08-19T11:55:14.806Z,1008.16
2022-08-19T11:56:14.788Z,1008.16
2022-08-19T11:57:14.768Z,1008.12
2022-08-19T11:58:18.741Z,1008.16
2022-08-19T11:59:15.076Z,1008.08
2022-08-19T12:00:14.728Z,1008.02
2022-08-19T12:01:14.706Z,1008.07
2022-08-19T12:02:14.690Z,1008.19
2022-08-19T12:03:14.674Z,1008.15
2022-08-19T12:04:14.704Z,1008.14
2022-08-19T12:05:14.706Z,1008.10
2022-08-19T12:06:14.635Z,1008.09
2022-08-19T12:07:14.616Z,1008.11
2022-08-19T12:08:14.601Z,1008.11
2022-08-19T12:09:14.589Z,1008.14
2022-08-19T12:10:14.572Z,1008.06
2022-08-19T12:11:14.553Z,1008.11
2022-08-19T12:12:14.542Z,1008.07
2022-08-19T12:29:14.293Z,1007.99
2022-08-19T12:30:14.272Z,1008.00
2022-08-19T12:31:14.254Z,1008.01
2022-08-19T12:32:14.238Z,1008.05
2022-08-19T12:33:14.224Z,1008.05
2022-08-19T12:34:14.216Z,1008.01
2022-08-19T12:35:14.196Z,1008.00
2022-08-19T12:36:14.181Z,1007.96
2022-08-19T12:37:14.166Z,1007.97
2022-08-19T12:38:14.149Z,1008.02
2022-08-19T12:39:14.137Z,1008.04
2022-08-19T12:40:14.215Z,1008.03
2022-08-19T12:41:14.109Z,1007.92
2022-08-19T12:42:14.098Z,1008.00
2022-08-19T12:43:14.070Z,1007.98
2022-08-19T12:44:14.063Z,1007.99
2022-08-19T12:45:14.046Z,1007.98
2022-08-19T12:46:14.029Z,1007.91
2022-08-19T12:47:14.010Z,1007.96
2022-08-19T12:48:33.673Z,1007.94
2022-08-19T12:49:29.689Z,1007.93
2022-08-19T13:02:13.785Z,1007.91
2022-08-19T13:03:13.768Z,1007.81
2022-08-19T13:04:13.756Z,1007.88
2022-08-19T13:05:13.736Z,1007.79
2022-08-19T13:06:13.720Z,1007.83
2022-08-19T13:07:13.701Z,1007.81
2022-08-19T13:08:13.693Z,1007.82
2022-08-19T13:09:13.677Z,1007.83
2022-08-19T13:10:13.665Z,1007.89
2022-08-19T13:11:13.642Z,1007.82
2022-08-19T13:12:13.635Z,1007.84
2022-08-19T13:13:13.609Z,1007.85
2022-08-19T13:14:13.595Z,1007.85
2022-08-19T13:15:15.185Z,1007.84
2022-08-19T13:16:13.565Z,1007.86
2022-08-19T13:17:13.548Z,1007.68
2022-08-19T13:18:13.532Z,1007.70
2022-08-19T13:19:13.526Z,1007.66
2022-08-19T13:20:13.502Z,1007.69
2022-08-19T13:21:13.492Z,1007.74
2022-08-19T13:22:15.086Z,1007.72
2022-08-19T13:23:13.459Z,1007.67
2022-08-19T13:24:13.442Z,1007.67
2022-08-19T13:25:13.430Z,1007.76
2022-08-19T13:26:13.408Z,1007.72
2022-08-19T13:27:13.394Z,1007.76
2022-08-19T13:28:13.378Z,1007.80
2022-08-19T13:29:13.370Z,1007.73
2022-08-19T13:42:13.163Z,1007.55
2022-08-19T13:43:17.882Z,1007.67
2022-08-19T13:44:13.135Z,1007.62
2022-08-19T13:45:13.117Z,1007.63
2022-08-19T13:46:13.101Z,1007.53
2022-08-19T13:47:13.088Z,1007.54
2022-08-19T13:48:13.070Z,1007.51
2022-08-19T13:49:13.057Z,1007.50
2022-08-19T13:50:13.040Z,1007.51
2022-08-19T13:51:13.026Z,1007.46
2022-08-19T13:52:13.011Z,1007.50
2022-08-19T13:53:12.996Z,1007.53
2022-08-19T13:54:12.983Z,1007.49
2022-08-19T13:55:12.968Z,1007.49
2022-08-19T13:56:12.950Z,1007.48
2022-08-19T13:57:12.940Z,1007.50
2022-08-19T13:58:12.919Z,1007.51
2022-08-19T13:59:12.907Z,1007.46
2022-08-19T14:00:12.904Z,1007.44
2022-08-19T14:01:12.902Z,1007.49
2022-08-19T14:02:12.860Z,1007.46
2022-08-19T14:03:12.848Z,1007.45
2022-08-19T14:04:12.835Z,1007.48
2022-08-19T14:05:12.819Z,1007.44
2022-08-19T14:06:12.801Z,1007.45
2022-08-19T14:07:12.794Z,1007.44
2022-08-19T14:08:12.779Z,1007.42
2022-08-19T14:09:12.757Z,1007.39
2022-08-19T14:10:12.742Z,1007.40
2022-08-19T14:11:12.727Z,1007.42
2022-08-19T14:12:12.715Z,1007.40
2022-08-19T14:22:12.565Z,1007.36
2022-08-19T14:23:12.551Z,1007.29
2022-08-19T14:24:12.536Z,1007.38
2022-08-19T14:25:12.522Z,1007.36
2022-08-19T14:26:12.511Z,1007.34
2022-08-19T14:27:12.492Z,1007.36
2022-08-19T14:28:12.485Z,1007.30
2022-08-19T14:29:12.465Z,1007.28
2022-08-19T14:30:12.445Z,1007.27
2022-08-19T14:31:12.438Z,1007.28
2022-08-19T14:32:16.952Z,1007.27
2022-08-19T14:33:12.408Z,1007.29
2022-08-19T14:34:12.389Z,1007.27
2022-08-19T14:35:12.375Z,1007.34
2022-08-19T14:36:12.357Z,1007.32
2022-08-19T14:37:14.408Z,1007.33
2022-08-19T14:38:12.329Z,1007.35
2022-08-19T14:39:12.322Z,1007.36
2022-08-19T14:40:12.367Z,1007.33
2022-08-19T14:41:12.287Z,1007.33
2022-08-19T14:42:12.272Z,1007.35
2022-08-19T14:43:12.254Z,1007.34
2022-08-19T14:44:12.249Z,1007.43
2022-08-19T14:45:12.226Z,1007.40
2022-08-19T14:46:12.210Z,1007.36
2022-08-19T14:47:12.196Z,1007.43
2022-08-19T14:48:19.007Z,1007.39
2022-08-19T14:49:12.165Z,1007.43
2022-08-19T14:56:12.061Z,1007.42
2022-08-19T14:57:12.043Z,1007.41
2022-08-19T14:58:29.599Z,1007.44
2022-08-19T14:59:12.013Z,1007.43
2022-08-19T15:00:11.996Z,1007.42
2022-08-19T15:01:11.982Z,1007.39
2022-08-19T15:02:33.596Z,1007.44
2022-08-19T15:03:11.954Z,1007.43
2022-08-19T15:04:11.933Z,1007.39
2022-08-19T15:05:11.924Z,1007.45
2022-08-19T15:06:12.841Z,1007.49
2022-08-19T15:07:11.889Z,1007.44
2022-08-19T15:08:11.875Z,1007.46
2022-08-19T15:09:11.859Z,1007.48
2022-08-19T15:10:11.844Z,1007.47
2022-08-19T15:11:11.825Z,1007.44
2022-08-19T15:12:11.810Z,1007.48
2022-08-19T15:13:11.812Z,1007.50
2022-08-19T15:14:11.780Z,1007.50
2022-08-19T15:15:11.769Z,1007.53
2022-08-19T15:16:17.886Z,1007.54
2022-08-19T15:17:11.736Z,1007.57
2022-08-19T15:18:11.718Z,1007.53
2022-08-19T15:19:11.704Z,1007.54
2022-08-19T15:20:11.687Z,1007.56
2022-08-19T15:21:11.678Z,1007.54
2022-08-19T15:22:11.655Z,1007.59
2022-08-19T15:23:11.642Z,1007.62
2022-08-19T15:24:11.629Z,1007.58
2022-08-19T15:25:11.874Z,1007.58
2022-08-19T15:31:24.019Z,1007.54
2022-08-19T15:32:11.504Z,1007.55
2022-08-19T15:33:11.491Z,1007.55
2022-08-19T15:34:11.474Z,1007.54
2022-08-19T15:35:11.469Z,1007.61
2022-08-19T15:36:11.441Z,1007.56
2022-08-19T15:37:11.431Z,1007.60
2022-08-19T15:38:11.420Z,1007.61
2022-08-19T15:39:11.396Z,1007.62
2022-08-19T15:40:11.477Z,1007.61
2022-08-19T15:41:11.364Z,1007.62
2022-08-19T15:42:11.349Z,1007.67
2022-08-19T15:43:11.335Z,1007.66
2022-08-19T15:44:11.327Z,1007.65
2022-08-19T15:45:11.302Z,1007.68
2022-08-19T15:46:11.284Z,1007.72
2022-08-19T15:47:11.275Z,1007.65
2022-08-19T15:48:11.257Z,1007.67
2022-08-19T15:49:11.242Z,1007.67
2022-08-19T15:50:11.251Z,1007.69
2022-08-19T15:51:11.209Z,1007.69
2022-08-19T15:52:11.195Z,1007.67
2022-08-19T15:53:11.180Z,1007.72
2022-08-19T15:54:11.162Z,1007.72
2022-08-19T15:55:11.149Z,1007.69
2022-08-19T15:56:11.136Z,1007.68
2022-08-19T15:57:11.122Z,1007.68
2022-08-19T15:58:11.103Z,1007.69
2022-08-19T15:59:11.085Z,1007.67
2022-08-19T16:00:11.557Z,1007.70
2022-08-19T16:01:12.549Z,1007.68
2022-08-19T16:02:11.128Z,1007.71
2022-08-19T16:03:11.022Z,1007.71
2022-08-19T16:04:14.563Z,1007.73
2022-08-19T16:08:10.946Z,1007.75
2022-08-19T16:09:10.929Z,1007.77
2022-08-19T16:10:26.268Z,1007.80
2022-08-19T16:11:10.898Z,1007.76
2022-08-19T16:12:10.881Z,1007.79
2022-08-19T16:13:10.870Z,1007.78
2022-08-19T16:14:10.849Z,1007.78
2022-08-19T16:15:10.838Z,1007.76
2022-08-19T16:16:10.818Z,1007.76
2022-08-19T16:17:10.805Z,1007.77
2022-08-19T16:18:10.787Z,1007.79
2022-08-19T16:19:12.087Z,1007.81
2022-08-19T16:20:10.756Z,1007.78
2022-08-19T16:21:10.742Z,1007.80
2022-08-19T16:22:10.726Z,1007.82
2022-08-19T16:23:10.710Z,1007.81
2022-08-19T16:24:10.694Z,1007.77
2022-08-19T16:25:10.676Z,1007.79
2022-08-19T16:26:10.661Z,1007.78
2022-08-19T16:27:10.647Z,1007.78
2022-08-19T16:28:11.017Z,1007.79
2022-08-19T16:29:12.229Z,1007.80
2022-08-19T16:30:10.599Z,1007.77
2022-08-19T16:31:10.580Z,1007.81
2022-08-19T16:32:10.675Z,1007.80
2022-08-19T16:33:10.552Z,1007.81
2022-08-19T16:34:10.534Z,1007.80
2022-08-19T16:35:10.520Z,1007.82
2022-08-19T16:36:10.502Z,1007.79
2022-08-19T16:37:10.489Z,1007.82
2022-08-19T16:38:10.468Z,1007.83
2022-08-19T16:39:10.458Z,1007.85
2022-08-19T16:40:13.596Z,1007.83
2022-08-19T16:41:10.428Z,1007.85
2022-08-19T16:44:10.377Z,1007.92
2022-08-19T16:45:10.360Z,1007.91
2022-08-19T16:46:10.342Z,1007.95
2022-08-19T16:47:10.328Z,1007.96
2022-08-19T16:48:10.313Z,1007.95
2022-08-19T16:49:10.301Z,1007.96
2022-08-19T16:50:10.281Z,1007.95
2022-08-19T16:51:10.270Z,1007.95
2022-08-19T16:52:10.252Z,1007.93
2022-08-19T16:53:10.234Z,1007.94
2022-08-19T16:54:10.216Z,1007.97
2022-08-19T16:55:10.202Z,1007.94
2022-08-19T16:56:10.188Z,1007.97
2022-08-19T16:57:11.957Z,1007.97
2022-08-19T16:58:10.152Z,1007.97
2022-08-19T16:59:10.140Z,1008.00
2022-08-19T17:00:10.122Z,1007.98
2022-08-19T17:01:10.160Z,1007.98
2022-08-19T17:02:10.091Z,1007.95
2022-08-19T17:03:14.652Z,1007.96
2022-08-19T17:04:10.058Z,1007.98
2022-08-19T17:05:10.046Z,1007.97
2022-08-19T17:06:17.844Z,1007.96
2022-08-19T17:07:10.011Z,1007.97
2022-08-19T17:08:09.993Z,1007.97
2022-08-19T17:09:09.984Z,1007.96
2022-08-19T17:15:09.885Z,1007.91
2022-08-19T17:55:09.248Z,1007.73
2022-08-19T17:56:09.232Z,1007.73
2022-08-19T17:57:09.213Z,1007.74
2022-08-19T17:58:09.197Z,1007.74
2022-08-19T18:28:08.715Z,1007.68
2022-08-19T18:29:08.698Z,1007.74
2022-08-19T18:30:08.680Z,1007.71
2022-08-19T18:31:08.663Z,1007.73
2022-08-19T18:32:08.657Z,1007.71
2022-08-19T18:33:09.193Z,1007.74
2022-08-19T18:34:08.615Z,1007.75
2022-08-19T19:07:08.071Z,1008.16
2022-08-19T19:08:08.053Z,1008.25
2022-08-19T19:09:08.040Z,1008.28
2022-08-19T19:10:08.028Z,1008.23
2022-08-19T19:11:08.000Z,1008.30
2022-08-19T19:12:07.986Z,1008.30
2022-08-19T19:13:07.967Z,1008.36
2022-08-19T19:14:07.958Z,1008.38
2022-08-19T19:15:07.932Z,1008.35
2022-08-19T19:45:07.419Z,1008.76
2022-08-19T19:46:07.401Z,1008.70
2022-08-19T19:47:07.385Z,1008.72
2022-08-19T19:48:07.369Z,1008.75
2022-08-19T19:49:07.359Z,1008.77
2022-08-19T19:50:15.804Z,1008.77
2022-08-19T19:51:07.313Z,1008.78
2022-08-19T19:52:07.300Z,1008.77
2022-08-19T19:53:07.285Z,1008.78
2022-08-19T19:54:07.262Z,1008.84
2022-08-19T20:22:06.775Z,1008.97
2022-08-19T20:23:06.762Z,1008.95
2022-08-19T20:24:10.000Z,1008.97
2022-08-19T20:25:06.738Z,1008.99
2022-08-19T20:26:06.705Z,1008.97
2022-08-19T20:27:06.689Z,1009.01
2022-08-19T20:28:06.672Z,1009.02
2022-08-19T20:29:13.465Z,1009.04
2022-08-19T20:30:06.641Z,1008.98
2022-08-19T20:31:06.619Z,1009.02
2022-08-19T20:57:06.170Z,1009.15
2022-08-19T20:58:06.160Z,1009.16
2022-08-19T20:59:06.135Z,1009.16
2022-08-19T21:00:06.119Z,1009.18
2022-08-19T21:01:06.179Z,1009.18
2022-08-19T21:02:06.086Z,1009.21
2022-08-19T21:03:06.065Z,1009.22
2022-08-19T21:04:06.055Z,1009.21
2022-08-19T21:05:06.033Z,1009.26
2022-08-19T21:06:06.017Z,1009.26
2022-08-19T21:07:05.999Z,1009.28
2022-08-19T21:08:05.982Z,1009.29
2022-08-19T21:09:05.964Z,1009.26
2022-08-19T21:10:05.947Z,1009.31
2022-08-19T21:34:05.535Z,1009.38
2022-08-19T21:35:05.521Z,1009.36
2022-08-19T21:36:05.499Z,1009.40
2022-08-19T21:37:05.482Z,1009.41
2022-08-19T21:38:05.465Z,1009.39
2022-08-19T21:39:05.451Z,1009.39
2022-08-19T21:40:05.495Z,1009.38
2022-08-19T21:41:06.217Z,1009.41
2022-08-19T21:42:05.402Z,1009.37
2022-08-19T21:43:05.379Z,1009.35
2022-08-19T21:44:05.365Z,1009.36
2022-08-19T21:45:05.346Z,1009.34
2022-08-19T21:46:05.327Z,1009.32
2022-08-19T21:47:05.316Z,1009.33
2022-08-19T21:48:05.294Z,1009.35
2022-08-19T21:49:05.305Z,1009.36
2022-08-19T21:50:05.265Z,1009.35
2022-08-19T21:51:05.252Z,1009.38
2022-08-19T21:52:05.231Z,1009.36
2022-08-19T21:53:05.220Z,1009.37
2022-08-19T21:54:05.193Z,1009.36
2022-08-19T22:13:04.863Z,1009.42
2022-08-19T22:14:04.845Z,1009.44
2022-08-19T22:15:04.829Z,1009.43
2022-08-19T22:16:04.814Z,1009.46
2022-08-19T22:17:04.794Z,1009.46
2022-08-19T22:18:04.800Z,1009.42
2022-08-19T22:19:04.759Z,1009.45
2022-08-19T22:20:04.740Z,1009.45
2022-08-19T22:21:07.286Z,1009.46
2022-08-19T22:22:04.708Z,1009.45
2022-08-19T22:23:04.691Z,1009.42
2022-08-19T22:24:04.680Z,1009.47
2022-08-19T22:25:04.654Z,1009.45
2022-08-19T22:26:04.645Z,1009.44
2022-08-19T22:27:04.619Z,1009.45
2022-08-19T22:28:04.696Z,1009.43
2022-08-19T22:29:04.648Z,1009.42
2022-08-19T22:30:04.565Z,1009.46
2022-08-19T22:31:04.549Z,1009.48
2022-08-19T22:32:17.777Z,1009.46
2022-08-19T22:50:04.217Z,1009.40
2022-08-19T22:51:04.202Z,1009.41
2022-08-19T22:52:04.183Z,1009.39
2022-08-19T22:53:04.166Z,1009.37
2022-08-19T22:54:04.150Z,1009.42
2022-08-19T22:55:04.136Z,1009.41
2022-08-19T22:56:04.118Z,1009.41
2022-08-19T22:57:04.097Z,1009.41
2022-08-19T22:58:04.081Z,1009.39
2022-08-19T22:59:04.064Z,1009.41
2022-08-19T23:00:04.046Z,1009.39
2022-08-19T23:01:04.087Z,1009.40
2022-08-19T23:02:04.009Z,1009.42
2022-08-19T23:03:03.995Z,1009.42
2022-08-19T23:04:04.097Z,1009.39
2022-08-19T23:05:03.959Z,1009.35
2022-08-19T23:06:03.939Z,1009.40
2022-08-19T23:07:03.924Z,1009.38
2022-08-19T23:08:03.907Z,1009.39
2022-08-19T23:09:04.713Z,1009.39
2022-08-19T23:10:03.868Z,1009.39
2022-08-19T23:11:03.854Z,1009.39
2022-08-19T23:12:03.837Z,1009.41
2022-08-19T23:13:03.819Z,1009.41
2022-08-19T23:30:03.520Z,1009.26